Time;durP1;ratioP1;P1;durP2;ratioP2;P2;SDS_P1;SDS_P2;PMS_P1;PMS_P2;Temp;Humidity;BMP_temperature;BMP_pressure;BME280_temperature;BME280_humidity;BME280_pressure;Samples;Min_cycle;Max_cycle;Signal;HPM_P1;HPM_P2
2022/05/12 04:00:29;;;;;;;4.50;2.50;;;18.90;90.40;;;;;;5943440;23;20363;-75
2022/05/12 04:02:55;;;;;;;4.03;2.00;;;19.00;91.10;;;;;;4973831;28;20445;-72
2022/05/12 04:05:21;;;;;;;2.90;1.77;;;19.20;90.30;;;;;;4974378;28;20833;-72
2022/05/12 04:07:47;;;;;;;2.43;1.90;;;19.50;89.40;;;;;;4973827;28;20194;-73
2022/05/12 04:10:14;;;;;;;2.30;2.00;;;19.70;89.10;;;;;;4982626;28;20908;-74
2022/05/12 04:12:39;;;;;;;2.90;2.17;;;20.10;88.30;;;;;;4982335;28;20405;-73
2022/05/12 04:15:06;;;;;;;3.67;2.20;;;20.30;87.40;;;;;;4981679;28;20487;-73
2022/05/12 04:17:31;;;;;;;3.33;2.43;;;20.60;86.50;;;;;;4978322;28;20182;-73
2022/05/12 04:20:04;;;;;;;4.70;1.80;;;20.70;86.30;;;;;;4974544;28;20439;-73
2022/05/12 04:22:30;;;;;;;7.53;2.90;;;;;;;;;;5068520;23;20312;-74
2022/05/12 04:24:56;;;;;;;4.13;2.07;;;21.20;84.70;;;;;;4959447;28;20454;-72
2022/05/12 04:27:22;;;;;;;2.33;1.87;;;21.10;85.10;;;;;;4975644;28;20235;-72
2022/05/12 04:29:47;;;;;;;3.13;1.87;;;21.20;84.90;;;;;;4954590;28;20178;-74
2022/05/12 04:32:13;;;;;;;3.10;1.87;;;;;;;;;;4967691;28;20210;-74
2022/05/12 04:37:30;;;;;;;4.53;1.73;;;22.10;83.00;;;;;;4957734;28;20201;-74
2022/05/12 04:40:05;;;;;;;2.57;2.10;;;22.10;82.10;;;;;;4945748;29;20426;-73
2022/05/12 04:42:30;;;;;;;3.17;2.30;;;22.00;82.80;;;;;;4935365;29;20419;-73
2022/05/12 04:44:56;;;;;;;3.13;2.03;;;22.40;82.30;;;;;;4937939;29;20491;-73
2022/05/12 04:47:21;;;;;;;2.33;2.00;;;22.80;81.80;;;;;;4943261;29;20217;-73
2022/05/12 04:49:46;;;;;;;6.60;1.80;;;22.80;80.40;;;;;;4944314;29;20190;-73
2022/05/12 04:52:12;;;;;;;2.80;1.60;;;23.00;80.80;;;;;;4936893;29;20223;-73
2022/05/12 04:54:38;;;;;;;4.50;2.00;;;23.00;80.50;;;;;;4954161;29;20568;-73
2022/05/12 04:57:04;;;;;;;3.07;1.93;;;22.90;82.00;;;;;;4954068;29;20417;-75
2022/05/12 04:59:31;;;;;;;3.30;2.00;;;22.90;81.20;;;;;;4953545;29;20641;-73
2022/05/12 05:01:57;;;;;;;3.60;1.80;;;22.70;81.50;;;;;;4953996;29;20440;-73
2022/05/12 05:04:23;;;;;;;3.90;2.10;;;21.60;84.00;;;;;;4954160;29;20410;-73
2022/05/12 05:06:48;;;;;;;3.27;2.00;;;20.30;88.10;;;;;;4953957;29;20174;-73
2022/05/12 05:09:14;;;;;;;5.90;2.00;;;19.80;90.50;;;;;;4953122;29;20215;-73
2022/05/12 05:11:39;;;;;;;6.17;2.27;;;19.50;91.00;;;;;;4953995;29;20274;-72
2022/05/12 05:14:05;;;;;;;7.10;1.93;;;19.30;93.30;;;;;;4953551;29;20638;-72
2022/05/12 05:16:31;;;;;;;4.50;1.83;;;18.90;94.90;;;;;;4951956;29;20659;-73
2022/05/12 05:18:56;;;;;;;6.90;2.07;;;18.40;94.90;;;;;;4953054;29;20261;-72
2022/05/12 05:21:22;;;;;;;6.80;1.57;;;18.30;96.30;;;;;;4953785;29;20686;-72
2022/05/12 05:23:47;;;;;;;14.43;1.67;;;18.30;94.60;;;;;;4954027;29;20295;-72
2022/05/12 05:26:13;;;;;;;7.07;2.10;;;18.30;95.90;;;;;;4953945;29;20179;-75
2022/05/12 05:28:39;;;;;;;9.63;2.23;;;18.40;95.50;;;;;;4953430;29;20231;-72
2022/05/12 05:31:05;;;;;;;5.53;2.37;;;18.10;96.30;;;;;;4953809;29;20198;-72
2022/05/12 05:33:31;;;;;;;11.67;2.20;;;17.60;96.30;;;;;;4953858;29;20465;-75
2022/05/12 05:35:57;;;;;;;4.63;2.30;;;17.80;96.30;;;;;;4943271;29;20431;-72
2022/05/12 05:38:23;;;;;;;3.40;2.23;;;18.90;96.30;;;;;;4948024;29;20182;-72
2022/05/12 05:40:48;;;;;;;7.73;2.73;;;19.70;93.80;;;;;;4943815;29;20200;-73
2022/05/12 05:43:14;;;;;;;5.90;2.37;;;19.30;95.50;;;;;;4938347;29;20424;-73
2022/05/12 05:45:40;;;;;;;3.67;2.33;;;18.50;96.30;;;;;;4934843;29;20187;-72
2022/05/12 05:48:06;;;;;;;5.97;2.90;;;18.20;96.30;;;;;;4949724;29;20418;-73
2022/05/12 05:53:24;;;;;;;3.83;1.90;;;17.90;96.30;;;;;;4934729;29;20713;-72
2022/05/12 05:55:52;;;;;;;9.43;2.70;;;17.70;96.30;;;;;;4934455;29;20428;-75
2022/05/12 05:58:17;;;;;;;4.53;2.43;;;17.50;96.30;;;;;;4933915;29;20918;-73
2022/05/12 06:00:43;;;;;;;3.90;2.50;;;17.60;96.30;;;;;;4936201;29;20435;-72
2022/05/12 06:03:10;;;;;;;8.10;2.03;;;17.60;96.30;;;;;;4938252;29;20591;-75
2022/05/12 06:05:36;;;;;;;7.67;2.00;;;18.20;96.30;;;;;;4956848;28;20638;-74
2022/05/12 06:08:02;;;;;;;4.40;1.73;;;18.30;96.30;;;;;;4951218;28;20417;-75
2022/05/12 06:10:28;;;;;;;4.43;2.00;;;;;;;;;;4948704;29;20441;-75
2022/05/12 06:12:55;;;;;;;2.80;1.70;;;;;;;;;;4956927;29;20470;-75
2022/05/12 06:15:21;;;;;;;6.00;1.77;;;18.30;96.30;;;;;;4957030;29;20410;-74
2022/05/12 06:17:47;;;;;;;5.13;1.70;;;18.70;96.30;;;;;;4956419;29;20453;-75
2022/05/12 06:20:12;;;;;;;6.73;2.10;;;18.10;96.30;;;;;;4956908;29;20856;-75
2022/05/12 06:22:39;;;;;;;3.60;1.80;;;18.10;96.30;;;;;;4956910;29;20190;-76
2022/05/12 06:25:07;;;;;;;4.67;2.20;;;18.20;96.30;;;;;;4956911;29;20550;-75
2022/05/12 06:27:33;;;;;;;4.00;1.40;;;18.30;96.30;;;;;;4956321;29;20430;-75
2022/05/12 06:29:59;;;;;;;4.70;2.30;;;17.70;96.30;;;;;;4956819;28;20414;-75
2022/05/12 06:32:26;;;;;;;4.30;1.63;;;17.60;96.30;;;;;;4956735;28;20441;-75
2022/05/12 06:34:53;;;;;;;4.03;2.00;;;17.80;96.30;;;;;;4956729;28;20693;-75
2022/05/12 06:37:19;;;;;;;6.40;1.70;;;17.50;96.30;;;;;;4956661;28;20784;-76
2022/05/12 06:39:44;;;;;;;6.27;1.87;;;18.00;96.30;;;;;;4952778;28;20859;-76
2022/05/12 06:42:10;;;;;;;4.13;2.47;;;19.30;96.30;;;;;;4920148;29;20588;-75
2022/05/12 06:44:36;;;;;;;7.30;2.03;;;20.40;93.60;;;;;;4937480;29;20179;-75
2022/05/12 06:47:06;;;;;;;2.97;1.67;;;20.10;96.30;;;;;;4937387;29;20309;-75
2022/05/12 06:49:31;;;;;;;7.90;1.80;;;20.30;95.60;;;;;;4939246;29;20175;-76
2022/05/12 06:51:56;;;;;;;3.30;1.70;;;20.40;96.30;;;;;;4950579;29;20435;-75
2022/05/12 06:54:22;;;;;;;2.40;1.70;;;;;;;;;;4946332;29;20667;-77
2022/05/12 06:56:48;;;;;;;3.37;2.03;;;19.30;96.30;;;;;;4940574;29;20187;-75
2022/05/12 06:59:14;;;;;;;5.83;2.17;;;18.20;96.30;;;;;;4954239;29;20183;-76
2022/05/12 07:01:39;;;;;;;3.50;2.17;;;17.40;96.30;;;;;;4956374;29;20215;-77
2022/05/12 07:04:05;;;;;;;5.17;2.03;;;17.20;96.30;;;;;;4956387;29;20242;-75
2022/05/12 07:06:30;;;;;;;3.87;1.93;;;17.10;96.30;;;;;;4956421;29;20526;-75
2022/05/12 07:08:57;;;;;;;3.40;2.27;;;17.20;96.30;;;;;;4938620;29;20726;-75
2022/05/12 07:11:23;;;;;;;5.17;2.10;;;;;;;;;;4955761;28;20197;-74
2022/05/12 07:13:48;;;;;;;4.77;2.33;;;17.20;96.30;;;;;;4956216;29;20457;-74
2022/05/12 07:16:15;;;;;;;5.23;2.23;;;;;;;;;;4956236;29;20411;-75
2022/05/12 07:18:41;;;;;;;5.33;2.07;;;;;;;;;;4955463;29;20637;-75
2022/05/12 07:26:39;;;;;;;4.50;2.53;;;18.90;96.30;;;;;;4956155;29;20426;-75
2022/05/12 07:29:09;;;;;;;4.50;2.10;;;19.80;96.30;;;;;;4938618;29;20894;-75
2022/05/12 07:31:36;;;;;;;4.20;1.90;;;19.50;96.30;;;;;;4936646;29;20451;-75
2022/05/12 07:34:01;;;;;;;5.53;2.47;;;19.10;96.30;;;;;;4936513;29;20821;-74
2022/05/12 07:36:33;;;;;;;7.90;2.77;;;18.70;96.30;;;;;;4936547;29;20427;-75
2022/05/12 07:39:00;;;;;;;1.90;1.63;;;18.10;96.30;;;;;;4935979;29;20172;-75
2022/05/12 07:41:26;;;;;;;6.00;1.90;;;17.80;96.30;;;;;;4936287;29;20482;-74
2022/05/12 07:43:52;;;;;;;2.47;2.17;;;17.30;96.30;;;;;;4936529;29;20514;-74
2022/05/12 07:46:22;;;;;;;4.07;2.20;;;17.50;96.30;;;;;;4936545;29;20451;-75
2022/05/12 07:48:49;;;;;;;3.93;1.90;;;18.00;96.30;;;;;;4935997;29;20184;-75
2022/05/12 07:51:17;;;;;;;8.00;2.57;;;18.70;96.30;;;;;;4936214;29;20446;-73
2022/05/12 07:53:43;;;;;;;6.10;1.90;;;19.50;96.30;;;;;;4936115;29;20457;-74
2022/05/12 07:56:09;;;;;;;4.60;2.13;;;19.80;96.30;;;;;;4936074;29;20507;-74
2022/05/12 07:58:34;;;;;;;4.93;1.77;;;20.00;94.80;;;;;;4935570;29;20172;-74
2022/05/12 08:01:00;;;;;;;5.10;2.00;;;19.50;96.30;;;;;;4940546;29;20247;-75
2022/05/12 08:03:26;;;;;;;6.13;1.80;;;19.40;96.30;;;;;;4935998;29;20651;-74
2022/05/12 08:05:53;;;;;;;11.23;2.50;;;19.00;96.30;;;;;;4935994;29;20182;-74
2022/05/12 08:08:19;;;;;;;3.43;1.70;;;19.20;96.30;;;;;;4935457;29;20412;-74
2022/05/12 08:10:44;;;;;;;3.77;2.47;;;19.20;95.90;;;;;;4936064;29;20498;-75
2022/05/12 08:13:17;;;;;;;5.30;2.13;;;18.90;96.30;;;;;;4935879;29;20311;-74
2022/05/12 08:15:48;;;;;;;5.47;2.10;;;19.30;96.30;;;;;;4953761;29;20257;-74
2022/05/12 08:18:16;;;;;;;4.13;2.43;;;19.60;96.30;;;;;;4954455;29;20429;-74
2022/05/12 08:20:44;;;;;;;3.87;1.93;;;20.30;95.80;;;;;;4954737;29;20430;-74
2022/05/12 08:23:10;;;;;;;7.87;2.23;;;19.70;95.60;;;;;;4954159;28;20980;-74
2022/05/12 08:25:35;;;;;;;6.10;2.27;;;18.90;96.30;;;;;;4954768;29;20505;-74
2022/05/12 08:28:01;;;;;;;6.30;1.87;;;;;;;;;;4954220;29;20178;-75
2022/05/12 08:30:27;;;;;;;3.10;2.03;;;18.60;96.30;;;;;;4954750;29;20577;-73
2022/05/12 08:32:52;;;;;;;3.63;1.90;;;18.60;96.30;;;;;;4954710;29;20179;-73
2022/05/12 08:35:18;;;;;;;5.57;1.77;;;18.80;96.30;;;;;;4954739;29;20171;-74
2022/05/12 08:37:43;;;;;;;4.00;1.97;;;18.70;96.30;;;;;;4954122;29;20655;-74
2022/05/12 08:40:37;;;;;;;6.70;1.97;;;18.70;96.30;;;;;;4937559;29;20520;-74
2022/05/12 08:43:17;;;;;;;3.23;1.83;;;18.80;96.30;;;;;;4950043;29;20255;-74
2022/05/12 08:45:44;;;;;;;2.37;1.77;;;19.80;96.30;;;;;;4935585;29;20780;-74
2022/05/12 08:48:12;;;;;;;2.43;1.70;;;20.00;96.30;;;;;;4934789;29;20502;-73
2022/05/12 08:50:40;;;;;;;6.57;2.73;;;;;;;;;;4935557;29;20979;-73
2022/05/12 08:53:16;;;;;;;4.03;1.80;;;19.90;92.60;;;;;;4935116;29;20462;-73
2022/05/12 08:55:47;;;;;;;1.77;1.50;;;19.70;94.70;;;;;;4935260;29;20415;-75
2022/05/12 08:58:33;;;;;;;4.07;1.70;;;19.10;96.30;;;;;;4934500;29;20947;-74
2022/05/12 09:00:59;;;;;;;9.60;1.93;;;;;;;;;;4925475;29;20525;-74
2022/05/12 09:03:49;;;;;;;3.83;2.33;;;17.70;96.30;;;;;;4943197;29;20408;-74
2022/05/12 09:06:23;;;;;;;6.83;2.17;;;17.70;96.30;;;;;;4928726;29;20423;-74
2022/05/12 09:09:00;;;;;;;4.93;1.83;;;18.00;96.30;;;;;;4953686;29;20824;-74
2022/05/12 09:11:38;;;;;;;4.07;1.87;;;18.70;96.30;;;;;;4954062;29;20438;-74
2022/05/12 09:14:11;;;;;;;7.53;1.90;;;19.30;96.30;;;;;;4953991;29;20454;-74
2022/05/12 09:16:37;;;;;;;13.57;1.67;;;19.30;96.30;;;;;;4954026;29;20451;-74
2022/05/12 09:19:02;;;;;;;2.87;1.40;;;18.90;96.30;;;;;;4953440;29;20521;-74
2022/05/12 09:21:35;;;;;;;1.50;1.40;;;18.30;96.30;;;;;;4953806;29;20316;-74
2022/05/12 09:24:03;;;;;;;8.03;1.70;;;18.00;96.30;;;;;;4936566;28;20266;-73
2022/05/12 09:26:48;;;;;;;2.43;1.30;;;18.00;96.30;;;;;;4947952;28;20420;-75
2022/05/12 09:29:24;;;;;;;2.93;1.50;;;18.10;96.30;;;;;;4950883;29;20940;-75
2022/05/12 09:31:54;;;;;;;5.63;1.40;;;18.00;96.30;;;;;;4942784;29;20495;-76
2022/05/12 09:34:22;;;;;;;5.03;1.80;;;17.90;96.30;;;;;;4935939;29;20466;-76
2022/05/12 09:36:48;;;;;;;5.57;1.43;;;17.80;96.30;;;;;;4951104;28;20426;-75
2022/05/12 09:39:39;;;;;;;3.57;1.70;;;18.40;96.30;;;;;;4973231;28;20569;-74
2022/05/12 09:42:28;;;;;;;5.87;1.40;;;19.20;96.30;;;;;;4970439;28;20240;-74
2022/05/12 09:45:04;;;;;;;5.50;1.27;;;19.90;96.30;;;;;;4945493;29;20427;-76
2022/05/12 09:47:30;;;;;;;6.73;1.50;;;19.80;96.30;;;;;;4939005;29;20934;-74
2022/05/12 09:50:16;;;;;;;5.80;1.97;;;20.30;93.90;;;;;;4937025;29;20426;-74
2022/05/12 09:52:57;;;;;;;10.03;1.80;;;20.30;91.40;;;;;;4937035;29;20486;-73
2022/05/12 09:55:27;;;;;;;2.57;1.70;;;20.40;95.00;;;;;;4938574;29;20396;-73
2022/05/12 09:58:06;;;;;;;2.30;1.53;;;20.70;92.40;;;;;;4937823;29;20442;-73
2022/05/12 10:01:03;;;;;;;4.93;1.50;;;20.20;92.70;;;;;;4938653;29;20482;-73
2022/05/12 10:09:14;;;;;;;1.70;1.40;;;19.30;93.60;;;;;;4944472;29;20413;-73
2022/05/12 10:12:06;;;;;;;3.23;1.63;;;19.00;96.30;;;;;;4957105;28;20960;-72
2022/05/12 10:14:33;;;;;;;1.90;1.67;;;19.00;96.30;;;;;;4956906;29;20450;-73
2022/05/12 10:17:01;;;;;;;3.73;1.63;;;18.70;94.20;;;;;;4957165;28;20469;-73
2022/05/12 10:19:29;;;;;;;3.07;1.93;;;18.60;96.00;;;;;;4957325;28;20513;-75
2022/05/12 11:01:19;;;;;;;4.03;1.70;;;20.70;87.50;;;;;;4931080;29;20483;-74
2022/05/12 11:04:06;;;;;;;6.00;1.50;;;20.70;88.30;;;;;;4918199;29;20469;-74
2022/05/12 11:06:39;;;;;;;13.00;1.70;;;20.50;88.20;;;;;;4918132;29;20952;-73
2022/05/12 11:09:11;;;;;;;5.63;2.00;;;20.00;87.80;;;;;;4917550;29;20423;-73
2022/05/12 11:11:45;;;;;;;3.50;1.77;;;20.00;89.80;;;;;;4917513;29;20444;-74
2022/05/12 11:14:22;;;;;;;5.17;1.93;;;19.80;91.80;;;;;;4917151;29;20531;-74
2022/05/12 11:17:09;;;;;;;6.67;1.60;;;20.50;90.40;;;;;;4917614;29;20769;-74
2022/05/12 11:19:36;;;;;;;2.40;1.30;;;21.10;87.80;;;;;;4917545;29;20503;-74
2022/05/12 11:22:40;;;;;;;1.90;1.23;;;20.40;87.10;;;;;;4917402;29;20468;-74
2022/05/12 11:25:25;;;;;;;3.80;1.10;;;19.70;91.40;;;;;;4917737;29;20502;-74
2022/05/12 11:31:29;;;;;;;5.47;1.27;;;19.40;93.20;;;;;;4898883;29;20448;-74
2022/05/12 11:34:00;;;;;;;3.07;1.17;;;19.60;90.20;;;;;;4917516;29;20459;-74
2022/05/12 11:36:40;;;;;;;2.90;1.30;;;19.80;91.20;;;;;;4917636;29;20501;-74
2022/05/12 11:39:37;;;;;;;5.83;1.37;;;19.90;87.80;;;;;;4917248;29;20408;-73
2022/05/12 11:42:21;;;;;;;2.67;1.10;;;19.80;92.80;;;;;;4916477;29;20809;-74
2022/05/12 11:45:03;;;;;;;2.57;1.50;;;21.00;89.50;;;;;;4917578;29;20431;-74
2022/05/12 11:48:06;;;;;;;2.53;1.30;;;22.10;87.70;;;;;;4917042;29;20508;-75
2022/05/12 11:51:04;;;;;;;3.83;1.50;;;22.90;85.30;;;;;;4916676;29;20511;-74
2022/05/12 11:53:55;;;;;;;7.20;1.23;;;23.10;81.30;;;;;;4917125;29;20451;-74
2022/05/12 11:56:40;;;;;;;8.87;1.30;;;23.10;83.80;;;;;;4917262;29;20412;-74
2022/05/12 11:59:20;;;;;;;7.83;1.73;;;23.00;79.80;;;;;;4899976;29;20980;-74
2022/05/12 12:01:58;;;;;;;8.87;1.43;;;21.90;81.60;;;;;;4917092;29;20443;-74
2022/05/12 12:04:39;;;;;;;3.50;1.30;;;22.00;86.70;;;;;;4904545;29;20463;-75
2022/05/12 12:07:14;;;;;;;2.70;1.37;;;22.20;83.70;;;;;;4937948;29;21059;-75
2022/05/12 12:09:39;;;;;;;8.20;1.60;;;22.60;85.50;;;;;;4955009;29;20417;-75
2022/05/12 12:12:08;;;;;;;6.40;1.37;;;23.20;84.20;;;;;;4955091;29;20426;-74
2022/05/12 12:14:42;;;;;;;3.10;1.57;;;23.20;83.10;;;;;;4954870;29;20289;-75
2022/05/12 12:17:11;;;;;;;3.50;1.30;;;22.80;81.20;;;;;;4954909;29;20422;-74
2022/05/12 12:19:52;;;;;;;6.50;1.40;;;23.00;84.20;;;;;;4954587;29;20407;-75
2022/05/12 12:22:25;;;;;;;3.00;1.60;;;22.40;85.40;;;;;;4954859;29;20449;-74
2022/05/12 12:25:08;;;;;;;3.77;1.50;;;21.90;82.60;;;;;;4955304;29;20407;-74
2022/05/12 12:27:52;;;;;;;1.83;1.13;;;21.00;84.00;;;;;;4954662;29;20446;-74
2022/05/12 12:30:34;;;;;;;9.63;1.67;;;20.10;89.50;;;;;;4954727;29;20977;-74
2022/05/12 12:33:24;;;;;;;5.60;1.50;;;20.50;87.00;;;;;;4954567;29;20410;-74
2022/05/12 12:36:00;;;;;;;3.33;1.73;;;21.00;88.50;;;;;;4954696;29;20419;-75
2022/05/12 12:38:44;;;;;;;1.97;1.20;;;21.30;87.40;;;;;;4954371;29;20414;-74
2022/05/12 12:41:10;;;;;;;2.20;1.20;;;;;;;;;;4954418;29;20434;-74
2022/05/12 12:43:38;;;;;;;2.50;1.30;;;22.20;84.60;;;;;;4954460;29;20473;-74
2022/05/12 12:46:25;;;;;;;2.30;1.10;;;22.70;82.50;;;;;;4958834;29;20418;-74
2022/05/12 12:48:59;;;;;;;4.97;1.70;;;22.70;82.50;;;;;;4919348;29;20441;-74
2022/05/12 12:51:43;;;;;;;2.53;1.37;;;24.00;81.70;;;;;;4935042;29;20475;-74
2022/05/12 12:57:10;;;;;;;2.17;1.20;;;25.00;79.90;;;;;;4935498;29;20399;-73
2022/05/12 12:59:47;;;;;;;7.00;1.43;;;24.90;80.30;;;;;;4934827;29;20935;-73
2022/05/12 13:02:30;;;;;;;6.13;1.50;;;24.90;78.10;;;;;;4935062;29;20515;-73
2022/05/12 13:05:02;;;;;;;4.97;1.70;;;24.40;76.10;;;;;;4935154;29;20422;-74
2022/05/12 13:07:31;;;;;;;4.73;1.50;;;24.30;77.90;;;;;;4934975;29;20407;-74
2022/05/12 13:09:57;;;;;;;4.33;1.30;;;23.80;78.90;;;;;;4934740;29;20454;-73
2022/05/12 13:12:26;;;;;;;6.50;1.00;;;24.00;78.80;;;;;;4934798;29;20949;-73
2022/05/12 13:14:53;;;;;;;8.17;1.60;;;23.60;76.70;;;;;;4934970;29;20835;-74
2022/05/12 13:17:20;;;;;;;5.40;1.53;;;23.60;81.70;;;;;;4934568;29;20782;-74
2022/05/12 13:19:46;;;;;;;7.17;2.10;;;24.10;81.30;;;;;;4934582;29;20444;-74
2022/05/12 13:22:24;;;;;;;3.10;1.30;;;24.30;80.90;;;;;;4934858;29;20495;-74
2022/05/12 13:24:51;;;;;;;4.40;2.23;;;24.10;77.20;;;;;;4934874;29;20415;-74
2022/05/12 13:27:21;;;;;;;5.07;1.60;;;23.90;79.70;;;;;;4936646;29;20433;-74
2022/05/12 13:29:47;;;;;;;5.10;2.23;;;23.30;80.80;;;;;;4934814;29;20431;-74
2022/05/12 13:32:36;;;;;;;4.50;1.43;;;22.90;79.90;;;;;;4934843;29;20447;-74
2022/05/12 13:35:09;;;;;;;3.70;1.77;;;23.20;80.70;;;;;;4934775;29;20215;-74
2022/05/12 13:37:46;;;;;;;3.40;1.47;;;23.60;80.10;;;;;;4934602;29;20415;-74
2022/05/12 13:40:39;;;;;;;2.77;1.30;;;23.90;81.10;;;;;;4934962;29;20418;-74
2022/05/12 13:43:11;;;;;;;4.00;1.40;;;23.90;78.10;;;;;;4935461;29;20490;-74
2022/05/12 13:45:37;;;;;;;7.50;1.70;;;;;;;;;;4918136;29;20450;-74
2022/05/12 13:48:03;;;;;;;1.93;1.40;;;23.90;79.70;;;;;;4937463;29;20891;-74
2022/05/12 13:50:43;;;;;;;10.20;2.10;;;23.50;80.80;;;;;;4952756;29;20279;-73
2022/05/12 13:53:09;;;;;;;7.77;1.60;;;23.70;81.90;;;;;;4953422;29;20257;-73
2022/05/12 13:55:35;;;;;;;1.77;1.30;;;23.60;78.30;;;;;;4953707;29;20469;-72
2022/05/12 13:58:03;;;;;;;2.43;1.27;;;22.60;80.60;;;;;;4953303;29;20418;-72
2022/05/12 14:00:39;;;;;;;3.80;1.83;;;22.20;82.20;;;;;;4953473;29;20199;-73
2022/05/12 14:03:22;;;;;;;6.53;1.77;;;22.00;85.00;;;;;;4953567;29;20410;-73
2022/05/12 14:05:50;;;;;;;2.40;1.23;;;22.20;82.70;;;;;;4953494;29;20410;-72
2022/05/12 14:08:23;;;;;;;3.27;1.40;;;;;;;;;;4953288;29;20958;-72
2022/05/12 14:10:50;;;;;;;5.20;1.60;;;;;;;;;;4953458;29;20505;-72
2022/05/12 14:19:15;;;;;;;5.77;1.80;;;22.70;80.90;;;;;;4953333;29;20438;-72
2022/05/12 14:21:50;;;;;;;8.40;1.53;;;22.60;81.80;;;;;;4937770;29;20493;-72
2022/05/12 14:24:17;;;;;;;5.10;1.53;;;22.60;84.00;;;;;;4957002;29;20414;-72
2022/05/12 14:26:44;;;;;;;2.80;1.43;;;22.90;81.60;;;;;;4956702;29;20807;-72
2022/05/12 14:29:09;;;;;;;2.90;1.30;;;22.90;79.70;;;;;;4956675;29;20411;-73
2022/05/12 14:31:36;;;;;;;4.57;1.77;;;22.90;83.10;;;;;;4956716;29;20794;-72
2022/05/12 14:34:03;;;;;;;4.87;1.83;;;22.60;81.00;;;;;;4956745;29;20718;-73
2022/05/12 14:36:28;;;;;;;3.27;1.40;;;22.60;81.00;;;;;;4945782;29;20426;-73
2022/05/12 14:38:54;;;;;;;2.43;1.73;;;22.30;81.40;;;;;;4937339;29;20808;-72
2022/05/12 14:41:20;;;;;;;5.30;1.33;;;22.30;83.30;;;;;;4937480;29;20206;-72
2022/05/12 14:43:46;;;;;;;6.53;1.90;;;22.10;83.60;;;;;;4937415;29;20186;-73
2022/05/12 14:46:12;;;;;;;7.63;1.60;;;21.70;84.30;;;;;;4937418;29;20416;-72
2022/05/12 14:48:41;;;;;;;11.37;1.67;;;21.60;84.90;;;;;;4937487;29;20662;-72
2022/05/12 14:51:07;;;;;;;3.17;1.30;;;21.10;84.00;;;;;;4937257;29;20211;-72
2022/05/12 14:53:35;;;;;;;7.17;1.10;;;21.00;83.20;;;;;;4937151;29;20963;-73
2022/05/12 14:56:00;;;;;;;6.10;1.70;;;21.10;85.00;;;;;;4937291;29;20752;-72
2022/05/12 14:58:26;;;;;;;4.10;1.10;;;20.90;84.40;;;;;;4936959;29;20443;-72
2022/05/12 15:00:51;;;;;;;1.87;0.90;;;21.00;85.30;;;;;;4919941;29;20212;-73
2022/05/12 15:03:16;;;;;;;2.90;1.13;;;21.10;83.80;;;;;;4937089;29;20179;-72
2022/05/12 15:05:42;;;;;;;5.80;1.60;;;21.40;83.30;;;;;;4937102;29;20171;-72
2022/05/12 15:08:08;;;;;;;1.97;1.07;;;21.60;83.00;;;;;;4936649;29;20542;-72
2022/05/12 15:10:34;;;;;;;7.37;1.10;;;21.50;82.70;;;;;;4936978;29;20195;-72
2022/05/12 15:12:59;;;;;;;10.60;1.40;;;21.60;82.50;;;;;;4936844;29;20415;-72
2022/05/12 15:15:25;;;;;;;3.73;1.67;;;21.80;83.30;;;;;;4936917;29;20202;-73
2022/05/12 15:17:51;;;;;;;6.20;1.20;;;22.00;79.90;;;;;;4936678;29;20168;-73
2022/05/12 15:20:22;;;;;;;3.53;1.30;;;21.80;82.40;;;;;;4936732;29;20474;-72
2022/05/12 15:22:49;;;;;;;2.13;1.00;;;22.00;81.20;;;;;;4937020;29;20602;-73
2022/05/12 15:25:15;;;;;;;4.10;1.20;;;21.80;79.70;;;;;;4936743;29;20764;-73
2022/05/12 15:27:44;;;;;;;9.57;1.60;;;21.70;81.60;;;;;;4936392;29;20946;-73
2022/05/12 15:30:13;;;;;;;5.33;1.40;;;22.00;79.10;;;;;;4936598;29;20459;-73
2022/05/12 15:32:38;;;;;;;3.30;1.30;;;21.90;79.70;;;;;;4936181;29;20470;-72
2022/05/12 15:35:05;;;;;;;1.60;1.10;;;21.60;78.50;;;;;;4936379;29;20462;-72
2022/05/12 15:37:30;;;;;;;5.03;1.43;;;21.70;81.10;;;;;;4936230;29;20179;-75
2022/05/12 15:39:56;;;;;;;5.90;1.53;;;22.00;79.50;;;;;;4936543;29;20804;-73
2022/05/12 15:42:21;;;;;;;1.53;1.07;;;21.90;80.00;;;;;;4936253;29;20191;-72
2022/05/12 15:44:48;;;;;;;2.90;1.53;;;22.10;83.50;;;;;;4936276;29;20263;-72
2022/05/12 15:47:14;;;;;;;4.47;1.10;;;;;;;;;;4919198;29;20190;-72
2022/05/12 15:49:42;;;;;;;4.83;1.47;;;22.30;80.40;;;;;;4937749;29;20781;-72
2022/05/12 15:52:08;;;;;;;3.63;1.37;;;22.50;82.20;;;;;;4936192;29;20203;-73
2022/05/12 15:54:35;;;;;;;2.07;1.30;;;22.20;80.70;;;;;;4936027;29;20473;-74
2022/05/12 15:57:01;;;;;;;7.33;1.17;;;22.20;83.10;;;;;;4936489;29;20763;-73
2022/05/12 15:59:27;;;;;;;3.30;1.23;;;22.00;81.40;;;;;;4935700;29;20526;-73
2022/05/12 16:01:54;;;;;;;3.73;1.40;;;22.00;82.20;;;;;;4935990;29;20519;-73
2022/05/12 16:04:20;;;;;;;5.70;1.20;;;22.20;80.60;;;;;;4935992;29;20172;-72
2022/05/12 16:06:45;;;;;;;8.30;1.47;;;22.10;81.40;;;;;;4935950;29;20415;-73
2022/05/12 16:09:11;;;;;;;2.47;1.00;;;22.10;80.50;;;;;;4935781;29;20183;-72
2022/05/12 16:14:25;;;;;;;4.20;1.10;;;21.40;80.50;;;;;;4935885;29;20565;-73
2022/05/12 16:16:53;;;;;;;2.43;1.30;;;21.00;82.00;;;;;;4935558;29;20794;-73
2022/05/12 16:19:19;;;;;;;3.30;1.00;;;21.10;82.90;;;;;;4936100;29;20411;-72
2022/05/12 16:24:20;;;;;;;8.90;1.30;;;20.70;80.90;;;;;;5142929;23;20217;-71
2022/05/12 16:26:51;;;;;;;8.37;1.53;;;20.40;83.00;;;;;;4974182;28;20852;-71
2022/05/12 16:29:23;;;;;;;6.60;2.27;;;20.10;81.50;;;;;;4971274;28;20178;-71
2022/05/12 16:31:48;;;;;;;10.67;1.20;;;20.00;82.70;;;;;;4973978;28;20413;-71
2022/05/12 16:34:15;;;;;;;4.83;1.17;;;20.00;84.80;;;;;;4974353;28;20460;-72
2022/05/12 16:36:41;;;;;;;3.73;1.00;;;20.20;85.20;;;;;;4956646;28;20175;-72
2022/05/12 16:39:06;;;;;;;2.90;1.07;;;20.30;83.50;;;;;;4973666;28;20824;-71
2022/05/12 16:41:32;;;;;;;8.70;0.90;;;20.10;82.90;;;;;;4973797;28;20269;-71
2022/05/12 16:43:58;;;;;;;2.60;1.03;;;19.90;83.90;;;;;;4966793;28;20195;-73
2022/05/12 16:46:23;;;;;;;9.00;1.40;;;19.80;84.20;;;;;;4950698;29;20233;-72
2022/05/12 16:48:49;;;;;;;3.00;1.10;;;19.70;84.30;;;;;;4954301;29;20178;-71
2022/05/12 16:51:14;;;;;;;2.90;0.90;;;19.40;84.00;;;;;;4954337;29;20230;-71
2022/05/12 16:53:41;;;;;;;2.57;1.30;;;;;;;;;;4953980;29;20322;-71
2022/05/12 16:56:06;;;;;;;7.87;1.60;;;19.30;85.70;;;;;;4954329;29;20234;-73
2022/05/12 16:58:32;;;;;;;4.90;0.90;;;19.40;84.40;;;;;;4934036;29;20431;-71
2022/05/12 17:01:00;;;;;;;3.20;1.10;;;19.60;86.30;;;;;;4958945;28;20232;-72
2022/05/12 17:03:30;;;;;;;5.20;1.23;;;19.60;85.60;;;;;;4960336;28;20203;-72
2022/05/12 17:05:58;;;;;;;16.87;1.33;;;19.40;84.90;;;;;;4935051;29;21015;-72
2022/05/12 17:08:24;;;;;;;5.70;1.10;;;18.80;85.50;;;;;;4934298;29;20438;-72
2022/05/12 17:10:51;;;;;;;3.23;0.83;;;18.60;87.90;;;;;;4934706;29;21018;-73
2022/05/12 17:13:16;;;;;;;2.07;1.10;;;18.50;88.60;;;;;;4934824;29;20219;-72
2022/05/12 17:15:42;;;;;;;3.83;1.30;;;18.60;86.80;;;;;;4934877;29;20512;-71
2022/05/12 17:18:08;;;;;;;3.40;1.23;;;18.60;86.90;;;;;;4947588;28;20549;-72
2022/05/12 17:20:33;;;;;;;1.97;1.13;;;18.60;86.20;;;;;;4953106;29;20179;-72
2022/05/12 17:22:59;;;;;;;1.50;1.00;;;;;;;;;;4953729;29;20198;-72
2022/05/12 17:25:25;;;;;;;4.10;0.90;;;18.60;87.20;;;;;;4954056;29;20171;-73
2022/05/12 17:27:50;;;;;;;6.23;1.33;;;18.40;87.40;;;;;;4952952;29;20194;-73
2022/05/12 17:30:18;;;;;;;7.73;1.10;;;18.20;86.70;;;;;;4953606;29;20179;-72
2022/05/12 17:32:44;;;;;;;2.40;1.10;;;18.10;88.10;;;;;;4953530;29;20553;-72
2022/05/12 17:35:10;;;;;;;5.43;1.43;;;17.90;88.40;;;;;;4953757;29;20529;-74
2022/05/12 17:37:38;;;;;;;2.67;0.90;;;17.90;89.00;;;;;;4948748;28;20183;-72
2022/05/12 17:40:12;;;;;;;5.03;1.30;;;17.80;89.30;;;;;;4944192;29;20415;-73
2022/05/12 17:42:41;;;;;;;5.87;1.10;;;17.60;89.30;;;;;;4947954;29;20447;-73
2022/05/12 17:45:09;;;;;;;4.93;1.10;;;17.60;88.50;;;;;;4953892;29;20482;-73
2022/05/12 17:47:35;;;;;;;2.40;1.03;;;17.50;89.60;;;;;;4953520;29;20433;-73
2022/05/12 17:50:00;;;;;;;3.47;1.03;;;17.30;90.10;;;;;;4953758;29;20422;-73
2022/05/12 17:52:26;;;;;;;5.07;1.23;;;17.10;90.30;;;;;;4953716;29;20258;-75
2022/05/12 17:54:51;;;;;;;1.80;1.00;;;17.10;92.30;;;;;;4954039;28;20238;-72
2022/05/12 17:57:17;;;;;;;5.10;1.10;;;17.00;92.90;;;;;;4957418;29;20187;-72
2022/05/12 17:59:43;;;;;;;7.03;1.23;;;16.90;92.00;;;;;;4957146;29;20167;-73
2022/05/12 18:02:08;;;;;;;8.50;1.00;;;16.80;91.40;;;;;;4940010;29;20658;-73
2022/05/12 18:04:38;;;;;;;3.80;1.47;;;16.60;93.20;;;;;;4957367;29;20178;-72
2022/05/12 18:07:08;;;;;;;2.23;0.97;;;16.40;95.40;;;;;;4957352;29;20655;-72
2022/05/12 18:09:34;;;;;;;9.77;1.03;;;16.30;95.90;;;;;;4957148;29;20422;-73
2022/05/12 18:12:01;;;;;;;2.20;1.03;;;16.10;96.30;;;;;;4951269;29;20998;-73
2022/05/12 18:14:27;;;;;;;3.00;1.10;;;16.00;96.30;;;;;;4952462;29;20493;-72
2022/05/12 18:16:53;;;;;;;1.80;0.87;;;15.80;96.30;;;;;;4950405;29;20420;-72
2022/05/12 18:19:19;;;;;;;7.20;1.80;;;15.60;96.30;;;;;;4940811;29;20434;-72